Aeroporto :
LOGIN :

Iscrizione | Disclaimer

   EN    FR    IT 

 










Sommario :    VFR   VFR Marginale   IFR   IFR Intensivo   IFR Molto Intensivo
Visibilità : 
Base nubi : 
>= 8 km
>= 3000ft
5 / 8 km
1000 / 3000 ft
1500m / 5 km
500 / 1000 ft
800 / 1500m
200 / 500 ft
< 800m
< 200 ft
Simboli :   Temporali  Nebbia  Neve Forte  Precipitazioni Forti  Vento > 20 kt
SIGMETs :   Varie  Temporali  Ghiacco  Turbolenza  Onda orograficha  Ceneri Vulcaniche






- Altitudine del aeroporto : 1084 ft
- Codice IATA : EPL


LFSG - Épinal-Mirecourt

ULTIMO METAR :
  • 240830Z AUTO VRB03KT 0200 R26/0225N FG VV/// 01/00 Q1025

METARs OBSOLETI :
  • 240800Z AUTO VRB02KT 0200 R26/0250N FG VV/// 01/01 Q1025
  • 240730Z AUTO 00000KT 0250 R26/0250N FG VV/// 01/01 Q1025
  • 240700Z AUTO 00000KT 0250 R26/0325N FG VV/// 00/00 Q1025
  • 240630Z AUTO 28002KT 0400 R26/0450N FG VV/// 00/00 Q1025
  • 240600Z AUTO 27004KT 0350 R26/0400N FG VV/// 01/01 Q1025

TAF N/A



MetMap, La meteo Aeronautica in un colpo d'occhio ! - Copyright ORBIFLY Dicembre 2007 - Disclaimer

ORBIFLY MET'MAP TEAM :

Programmazione e sviluppo : Alexandra Zaïnal
Concezione : Baudouin d'Aumeries
Aiuto per la programmazione : Marc-Olivier Méhu
Supporto tecnico e logistico : Manuel Goepfert
Aiuto per la traduzione : Arnaldo La Scala

Contatto : metmap@orbifly.com




FONTI E CREDITI :

   NOAA